createdAt,value
2019-05-26T00:01:59.115Z,15.8
2019-05-26T00:02:59.126Z,15.7
2019-05-26T00:03:59.138Z,15.7
2019-05-26T00:06:59.201Z,15.9
2019-05-26T00:11:59.776Z,16.1
2019-05-26T00:16:59.371Z,16.0
2019-05-26T00:21:59.464Z,15.9
2019-05-26T00:22:59.708Z,16.0
2019-05-26T00:23:59.489Z,15.9
2019-05-26T00:24:59.519Z,15.9
2019-05-26T00:25:59.544Z,15.9
2019-05-26T00:27:09.634Z,15.9
2019-05-26T00:31:59.776Z,15.9
2019-05-26T00:33:49.932Z,15.7
2019-05-26T00:36:59.908Z,15.7
2019-05-26T00:42:00.034Z,15.7
2019-05-26T00:47:00.240Z,16.0
2019-05-26T00:52:00.408Z,16.5
2019-05-26T00:57:00.470Z,16.7
2019-05-26T01:02:00.589Z,16.8
2019-05-26T01:03:00.606Z,16.8
2019-05-26T01:04:00.627Z,16.7
2019-05-26T01:05:00.655Z,16.7
2019-05-26T01:06:10.671Z,16.8
2019-05-26T01:08:50.943Z,16.8
2019-05-26T01:09:50.835Z,16.8
2019-05-26T01:12:00.843Z,16.8
2019-05-26T01:13:00.862Z,16.7
2019-05-26T01:14:00.905Z,16.7
2019-05-26T01:15:00.882Z,16.7
2019-05-26T01:16:10.913Z,16.7
2019-05-26T01:17:10.918Z,16.7
2019-05-26T01:22:01.041Z,16.7
2019-05-26T01:23:01.055Z,16.7
2019-05-26T01:24:01.067Z,16.7
2019-05-26T01:25:01.179Z,16.6
2019-05-26T01:26:11.246Z,16.6
2019-05-26T01:27:11.271Z,16.6
2019-05-26T01:28:51.359Z,16.6
2019-05-26T01:30:51.383Z,16.5
2019-05-26T01:32:01.397Z,16.5
2019-05-26T01:33:01.406Z,16.5
2019-05-26T01:34:01.471Z,16.5
2019-05-26T01:35:01.633Z,16.4
2019-05-26T01:36:11.503Z,16.4
2019-05-26T01:37:11.549Z,16.4
2019-05-26T01:39:52.698Z,16.3
2019-05-26T01:42:01.709Z,16.4
2019-05-26T01:43:01.688Z,16.5
2019-05-26T01:44:01.719Z,16.5
2019-05-26T01:45:01.790Z,16.6
2019-05-26T01:46:11.840Z,16.6
2019-05-26T01:47:11.854Z,16.6
2019-05-26T01:48:01.962Z,16.6
2019-05-26T01:49:01.960Z,16.5
2019-05-26T01:50:02.007Z,16.5
2019-05-26T01:51:13.203Z,16.6
2019-05-26T01:52:12.033Z,16.5
2019-05-26T01:53:02.074Z,16.5
2019-05-26T01:54:02.151Z,16.5
2019-05-26T01:55:02.144Z,16.5
2019-05-26T01:56:12.163Z,16.4
2019-05-26T01:57:12.177Z,16.4
2019-05-26T01:58:42.199Z,16.4
2019-05-26T01:59:42.232Z,16.4
2019-05-26T02:00:42.366Z,16.4
2019-05-26T02:01:52.488Z,16.3
2019-05-26T02:02:42.356Z,16.2
2019-05-26T02:03:42.390Z,16.2
2019-05-26T02:04:42.495Z,16.2
2019-05-26T02:05:42.519Z,16.2
2019-05-26T02:06:42.505Z,16.1
2019-05-26T02:07:32.602Z,16.0
2019-05-26T02:08:39.075Z,16.0
2019-05-26T02:09:32.650Z,15.8
2019-05-26T02:10:32.651Z,15.9
2019-05-26T02:11:42.667Z,15.9
2019-05-26T02:12:42.937Z,16.0
2019-05-26T02:13:32.822Z,15.8
2019-05-26T02:14:32.846Z,15.9
2019-05-26T02:16:32.884Z,15.9
2019-05-26T02:21:32.965Z,16.0
2019-05-26T02:23:23.120Z,15.8
2019-05-26T02:26:33.151Z,15.8
2019-05-26T02:27:33.080Z,15.8
2019-05-26T02:28:33.089Z,15.8
2019-05-26T02:29:33.142Z,15.7
2019-05-26T02:30:33.214Z,15.7
2019-05-26T02:31:43.283Z,15.6
2019-05-26T02:32:33.245Z,15.6
2019-05-26T02:33:33.317Z,15.7
2019-05-26T02:34:33.352Z,15.6
2019-05-26T02:35:33.357Z,15.5
2019-05-26T02:36:43.450Z,15.5
2019-05-26T02:37:24.528Z,15.4
2019-05-26T02:41:33.529Z,15.4
2019-05-26T02:48:25.044Z,15.1
2019-05-26T02:51:33.919Z,15.2
2019-05-26T02:56:34.116Z,15.1
2019-05-26T03:01:34.210Z,15.1
2019-05-26T03:02:34.287Z,15.2
2019-05-26T03:03:34.242Z,15.2
2019-05-26T03:04:34.317Z,15.3
2019-05-26T03:05:34.302Z,15.2
2019-05-26T03:06:44.310Z,15.1
2019-05-26T03:11:34.503Z,15.3
2019-05-26T03:16:44.592Z,15.1
2019-05-26T03:21:44.655Z,15.2
2019-05-26T03:25:24.769Z,15.2
2019-05-26T03:26:44.740Z,15.3
2019-05-26T03:30:24.937Z,15.2
2019-05-26T03:31:34.902Z,15.1
2019-05-26T03:33:25.009Z,15.1
2019-05-26T03:34:25.025Z,15.1
2019-05-26T03:36:45.037Z,15.1
2019-05-26T03:38:25.267Z,15.0
2019-05-26T03:41:45.181Z,15.2
2019-05-26T03:44:25.288Z,15.3
2019-05-26T03:46:45.327Z,15.4
2019-05-26T03:48:15.360Z,15.5
2019-05-26T03:51:15.545Z,15.4
2019-05-26T03:52:15.525Z,15.5
2019-05-26T03:53:56.933Z,15.5
2019-05-26T03:56:15.756Z,15.5
2019-05-26T03:57:05.800Z,15.5
2019-05-26T03:57:45.781Z,15.6
2019-05-26T03:58:45.797Z,15.7
2019-05-26T03:59:45.809Z,15.7
2019-05-26T04:01:05.843Z,15.7
2019-05-26T04:02:05.868Z,15.7
2019-05-26T04:02:45.858Z,15.6
2019-05-26T04:03:45.888Z,15.7
2019-05-26T04:04:45.902Z,15.6
2019-05-26T04:06:05.948Z,15.6
2019-05-26T04:07:05.966Z,15.7
2019-05-26T04:07:45.986Z,15.6
2019-05-26T04:08:46.034Z,15.6
2019-05-26T04:10:02.936Z,15.7
2019-05-26T04:12:46.231Z,15.5
2019-05-26T04:13:36.245Z,15.6
2019-05-26T04:14:36.299Z,15.5
2019-05-26T04:15:36.271Z,15.4
2019-05-26T04:16:46.310Z,15.5
2019-05-26T04:17:36.349Z,15.5
2019-05-26T04:18:36.331Z,15.5
2019-05-26T04:19:36.351Z,15.5
2019-05-26T04:20:36.353Z,15.4
2019-05-26T04:21:46.378Z,15.4
2019-05-26T04:22:36.414Z,15.3
2019-05-26T04:23:36.414Z,15.3
2019-05-26T04:24:36.425Z,15.4
2019-05-26T04:25:46.503Z,15.3
2019-05-26T04:26:46.509Z,15.3
2019-05-26T04:27:36.513Z,15.3
2019-05-26T04:28:36.575Z,15.3
2019-05-26T04:29:36.652Z,15.4
2019-05-26T04:30:46.679Z,15.3
2019-05-26T04:31:46.698Z,15.4
2019-05-26T04:32:36.746Z,15.3
2019-05-26T04:33:36.753Z,15.3
2019-05-26T04:34:36.876Z,15.4
2019-05-26T04:35:46.885Z,15.4
2019-05-26T04:36:46.890Z,15.3
2019-05-26T04:37:36.983Z,15.4
2019-05-26T04:38:38.102Z,15.5
2019-05-26T04:39:37.055Z,15.5
2019-05-26T04:40:47.060Z,15.4
2019-05-26T04:41:47.112Z,15.5
2019-05-26T04:42:37.091Z,15.6
2019-05-26T04:43:37.099Z,15.6
2019-05-26T04:44:37.184Z,15.5
2019-05-26T04:45:47.183Z,15.6
2019-05-26T04:46:47.176Z,15.6
2019-05-26T04:49:28.432Z,15.7
2019-05-26T04:51:37.302Z,15.8
2019-05-26T04:56:47.497Z,15.8
2019-05-26T05:01:47.597Z,15.8
2019-05-26T05:06:47.844Z,15.9
2019-05-26T05:11:47.948Z,16.1
2019-05-26T05:16:48.126Z,16.3
2019-05-26T05:18:18.170Z,16.4
2019-05-26T05:19:18.178Z,16.3
2019-05-26T05:20:18.209Z,16.3
2019-05-26T05:21:38.737Z,16.5
2019-05-26T05:22:38.283Z,16.4
2019-05-26T05:23:38.294Z,16.5
2019-05-26T05:24:38.309Z,16.5
2019-05-26T05:27:38.379Z,16.5
2019-05-26T05:28:38.401Z,16.6
2019-05-26T05:29:38.434Z,16.6
2019-05-26T05:32:48.534Z,16.7
2019-05-26T05:33:38.562Z,16.7
2019-05-26T05:34:38.652Z,16.8
2019-05-26T05:37:38.693Z,16.9
2019-05-26T05:38:38.754Z,16.9
2019-05-26T05:39:38.746Z,16.9
2019-05-26T05:46:18.906Z,17.2
2019-05-26T05:47:18.959Z,17.2
2019-05-26T05:48:18.911Z,17.3
2019-05-26T05:49:08.953Z,17.3
2019-05-26T05:49:48.994Z,17.3
2019-05-26T05:51:08.977Z,17.4
2019-05-26T05:52:08.986Z,17.4
2019-05-26T05:53:59.634Z,17.4
2019-05-26T05:56:19.161Z,17.5
2019-05-26T05:57:19.205Z,17.4
2019-05-26T05:58:19.196Z,17.5
2019-05-26T05:59:09.216Z,17.6
2019-05-26T05:59:49.212Z,17.5
2019-05-26T06:01:09.233Z,17.5
2019-05-26T06:02:09.255Z,17.6
2019-05-26T06:06:19.528Z,17.7
2019-05-26T06:07:09.523Z,17.7
2019-05-26T06:07:49.589Z,17.8
2019-05-26T06:08:49.598Z,17.8
2019-05-26T06:09:49.687Z,17.8
2019-05-26T06:11:16.302Z,17.8
2019-05-26T06:12:09.698Z,17.9
2019-05-26T06:16:19.890Z,18.0
2019-05-26T06:17:10.501Z,18.1
2019-05-26T06:17:49.860Z,18.1
2019-05-26T06:18:49.768Z,18.1
2019-05-26T06:19:49.803Z,18.5
2019-05-26T06:21:09.828Z,18.7
2019-05-26T06:22:09.849Z,18.8
2019-05-26T06:26:19.986Z,19.1
2019-05-26T06:27:10.137Z,19.2
2019-05-26T06:27:50.014Z,19.1
2019-05-26T06:28:52.251Z,19.3
2019-05-26T06:29:58.675Z,19.4
2019-05-26T06:31:10.141Z,19.5
2019-05-26T06:32:10.430Z,19.6
2019-05-26T06:36:10.276Z,20.0
2019-05-26T06:37:10.320Z,20.0
2019-05-26T06:37:50.334Z,20.0
2019-05-26T06:38:50.499Z,20.1
2019-05-26T06:39:50.387Z,20.1
2019-05-26T06:41:10.411Z,20.2
2019-05-26T06:42:12.877Z,20.4
2019-05-26T06:46:20.576Z,20.7
2019-05-26T06:47:10.581Z,21.0
2019-05-26T06:47:50.596Z,21.0
2019-05-26T06:48:50.652Z,21.0
2019-05-26T06:51:10.908Z,20.9
2019-05-26T06:52:20.925Z,21.0
2019-05-26T06:53:21.010Z,21.0
2019-05-26T06:54:21.017Z,20.9
2019-05-26T06:55:41.057Z,21.0
2019-05-26T06:56:41.074Z,21.0
2019-05-26T06:59:21.156Z,20.9
2019-05-26T07:05:51.482Z,21.2
2019-05-26T07:06:51.526Z,21.2
2019-05-26T07:07:31.501Z,21.2
2019-05-26T07:08:31.581Z,21.3
2019-05-26T07:09:31.669Z,21.3
2019-05-26T07:10:51.622Z,21.2
2019-05-26T07:11:31.632Z,21.3
2019-05-26T07:14:31.790Z,20.9
2019-05-26T07:15:52.898Z,20.9
2019-05-26T07:16:37.877Z,20.9
2019-05-26T07:17:31.830Z,20.8
2019-05-26T07:19:31.925Z,20.6
2019-05-26T07:20:51.885Z,20.6
2019-05-26T07:21:31.892Z,20.6
2019-05-26T07:23:31.928Z,20.6
2019-05-26T07:25:52.104Z,20.6
2019-05-26T07:30:52.160Z,21.3
2019-05-26T07:35:52.312Z,21.9
2019-05-26T07:40:52.419Z,21.6
2019-05-26T07:45:52.511Z,21.4
2019-05-26T07:50:52.569Z,21.6
2019-05-26T07:55:52.890Z,22.1
2019-05-26T08:00:52.850Z,22.2
2019-05-26T08:05:53.071Z,21.9
2019-05-26T08:10:53.217Z,21.9
2019-05-26T08:15:53.330Z,22.3
2019-05-26T08:20:53.453Z,23.0
2019-05-26T08:25:53.546Z,23.4
2019-05-26T08:26:43.553Z,23.4
2019-05-26T08:30:53.998Z,24.2
2019-05-26T08:35:53.895Z,24.5
2019-05-26T08:36:43.903Z,24.5
2019-05-26T08:40:53.957Z,24.4
2019-05-26T08:45:54.067Z,24.1
2019-05-26T08:46:44.227Z,24.3
2019-05-26T08:47:44.278Z,24.3
2019-05-26T08:48:44.136Z,24.2
2019-05-26T08:50:54.214Z,24.1
2019-05-26T08:51:44.220Z,24.0
2019-05-26T08:52:44.275Z,24.2
2019-05-26T08:53:45.246Z,24.4
2019-05-26T08:54:44.385Z,24.1
2019-05-26T08:55:54.398Z,24.2
2019-05-26T08:56:44.494Z,24.3
2019-05-26T08:57:44.479Z,24.5
2019-05-26T08:58:44.443Z,24.5
2019-05-26T08:59:44.458Z,24.8
2019-05-26T09:05:54.590Z,25.5
2019-05-26T09:06:44.597Z,25.6
2019-05-26T09:10:54.901Z,25.8
2019-05-26T09:15:55.026Z,26.0
2019-05-26T09:20:55.009Z,26.0
2019-05-26T09:25:55.093Z,26.0
2019-05-26T09:27:25.170Z,26.0
2019-05-26T09:28:25.200Z,26.1
2019-05-26T09:29:25.210Z,26.2
2019-05-26T09:30:45.244Z,26.4
2019-05-26T09:31:25.309Z,26.3
2019-05-26T09:32:15.329Z,26.1
2019-05-26T09:32:55.431Z,26.1
2019-05-26T09:33:55.407Z,25.8
2019-05-26T09:34:55.416Z,25.6
2019-05-26T09:36:15.442Z,25.4
2019-05-26T09:36:57.105Z,25.5
2019-05-26T09:37:45.579Z,25.5
2019-05-26T09:38:45.507Z,25.7
2019-05-26T09:39:45.590Z,25.7
2019-05-26T09:41:45.704Z,25.9
2019-05-26T09:42:45.715Z,25.9
2019-05-26T09:43:45.755Z,25.6
2019-05-26T09:44:45.790Z,25.4
2019-05-26T09:46:45.831Z,25.6
2019-05-26T09:47:45.855Z,25.6
2019-05-26T09:48:45.898Z,25.7
2019-05-26T09:49:45.865Z,25.7
2019-05-26T09:51:05.915Z,25.8
2019-05-26T09:51:46.483Z,25.8
2019-05-26T09:52:45.973Z,26.0
2019-05-26T09:53:59.000Z,26.0
2019-05-26T09:54:46.070Z,25.9
2019-05-26T09:56:06.153Z,26.2
2019-05-26T09:56:46.115Z,25.8
2019-05-26T09:57:46.174Z,25.6
2019-05-26T09:58:46.196Z,25.7
2019-05-26T09:59:46.248Z,25.7
2019-05-26T10:01:46.313Z,25.9
2019-05-26T10:02:46.463Z,25.8
2019-05-26T10:03:46.408Z,25.9
2019-05-26T10:04:46.502Z,26.0
2019-05-26T10:06:46.587Z,26.3
2019-05-26T10:07:46.678Z,26.4
2019-05-26T10:09:46.823Z,26.2
2019-05-26T10:12:46.955Z,26.0
2019-05-26T10:13:48.524Z,26.0
2019-05-26T10:14:47.806Z,26.1
2019-05-26T10:17:46.990Z,26.4
2019-05-26T10:18:47.016Z,26.5
2019-05-26T10:19:47.035Z,26.4
2019-05-26T10:22:47.091Z,26.4
2019-05-26T10:23:47.156Z,26.4
2019-05-26T10:24:47.173Z,26.5
2019-05-26T10:27:47.246Z,26.8
2019-05-26T10:28:47.353Z,26.6
2019-05-26T10:29:47.390Z,26.6
2019-05-26T10:32:47.455Z,26.7
2019-05-26T10:33:47.504Z,26.8
2019-05-26T10:34:47.515Z,26.9
2019-05-26T10:37:47.571Z,27.2
2019-05-26T10:40:57.635Z,27.1
2019-05-26T10:41:57.642Z,27.1
2019-05-26T10:42:47.655Z,27.1
2019-05-26T10:43:47.975Z,27.1
2019-05-26T10:44:47.717Z,27.1
2019-05-26T10:47:08.824Z,27.4
2019-05-26T10:47:47.772Z,27.6
2019-05-26T10:48:47.818Z,27.7
2019-05-26T10:49:47.947Z,27.8
2019-05-26T10:52:58.070Z,28.0
2019-05-26T10:53:48.149Z,27.9
2019-05-26T10:54:48.238Z,27.9
2019-05-26T10:57:48.252Z,27.3
2019-05-26T10:58:48.287Z,27.2
2019-05-26T10:59:48.328Z,27.1
2019-05-26T11:02:58.363Z,26.7
2019-05-26T11:03:48.389Z,26.7
2019-05-26T11:04:48.419Z,26.8
2019-05-26T11:07:28.472Z,26.5
2019-05-26T11:08:28.484Z,26.5
2019-05-26T11:09:28.665Z,26.3
2019-05-26T11:10:28.548Z,26.2
2019-05-26T11:11:28.577Z,26.1
2019-05-26T11:12:48.624Z,25.9
2019-05-26T11:13:28.628Z,25.9
2019-05-26T11:14:18.666Z,25.9
2019-05-26T11:15:18.682Z,25.7
2019-05-26T11:16:18.664Z,25.5
2019-05-26T11:18:28.696Z,25.7
2019-05-26T11:19:28.743Z,25.9
2019-05-26T11:20:28.952Z,26.3
2019-05-26T11:21:28.733Z,26.7
2019-05-26T11:22:48.753Z,27.0
2019-05-26T11:23:28.783Z,27.0
2019-05-26T11:24:18.851Z,26.8
2019-05-26T11:25:19.067Z,26.7
2019-05-26T11:26:19.092Z,26.8
2019-05-26T11:28:29.199Z,26.6
2019-05-26T11:29:29.166Z,26.6
2019-05-26T11:30:29.179Z,26.6
2019-05-26T11:31:30.027Z,26.7
2019-05-26T11:32:49.236Z,26.7
2019-05-26T11:33:29.274Z,26.8
2019-05-26T11:34:19.274Z,26.7
2019-05-26T11:35:19.286Z,26.7
2019-05-26T11:36:19.313Z,26.4
2019-05-26T11:38:29.334Z,26.2
2019-05-26T11:39:29.347Z,26.4
2019-05-26T11:40:29.418Z,26.2
2019-05-26T11:41:29.549Z,26.2
2019-05-26T11:42:49.462Z,26.2
2019-05-26T11:43:29.531Z,26.2
2019-05-26T11:44:29.563Z,26.1
2019-05-26T11:45:29.659Z,26.2
2019-05-26T11:46:29.718Z,26.1
2019-05-26T11:47:49.697Z,26.3
2019-05-26T11:50:29.823Z,26.9
2019-05-26T11:52:59.896Z,27.2
2019-05-26T11:53:31.051Z,27.3
2019-05-26T11:54:29.907Z,27.4
2019-05-26T11:55:29.914Z,27.2
2019-05-26T11:56:29.992Z,27.3
2019-05-26T11:57:49.962Z,27.6
2019-05-26T11:59:30.014Z,27.9
2019-05-26T12:00:30.015Z,28.0
2019-05-26T12:01:30.029Z,27.9
2019-05-26T12:02:50.042Z,27.9
2019-05-26T12:03:30.081Z,27.8
2019-05-26T12:05:20.118Z,27.5
2019-05-26T12:06:20.121Z,27.5
2019-05-26T12:08:30.287Z,27.1
2019-05-26T12:09:30.291Z,27.3
2019-05-26T12:10:30.304Z,27.5
2019-05-26T12:11:30.395Z,27.4
2019-05-26T12:12:50.459Z,27.6
2019-05-26T12:13:30.469Z,27.6
2019-05-26T12:14:34.598Z,27.9
2019-05-26T12:15:20.489Z,27.9
2019-05-26T12:16:20.511Z,27.8
2019-05-26T12:18:30.581Z,27.8
2019-05-26T12:19:30.622Z,27.8
2019-05-26T12:20:30.687Z,28.0
2019-05-26T12:21:30.710Z,27.9
2019-05-26T12:22:50.771Z,27.9
2019-05-26T12:23:30.793Z,27.9
2019-05-26T12:24:30.917Z,28.0
2019-05-26T12:25:31.002Z,27.7
2019-05-26T12:26:20.871Z,27.5
2019-05-26T12:28:30.918Z,27.7
2019-05-26T12:29:30.946Z,28.0
2019-05-26T12:30:30.998Z,28.1
2019-05-26T12:31:30.995Z,28.4
2019-05-26T12:32:51.163Z,28.6
2019-05-26T12:33:31.034Z,28.6
2019-05-26T12:34:31.068Z,28.9
2019-05-26T12:35:21.059Z,28.9
2019-05-26T12:36:21.682Z,28.5
2019-05-26T12:38:31.100Z,28.3
2019-05-26T12:39:31.143Z,28.6
2019-05-26T12:40:31.129Z,28.7
2019-05-26T12:41:33.923Z,28.8
2019-05-26T12:42:51.243Z,28.7
2019-05-26T12:43:31.250Z,28.6
2019-05-26T12:44:21.283Z,28.4
2019-05-26T12:45:21.302Z,28.2
2019-05-26T12:47:42.490Z,28.0
2019-05-26T12:48:31.359Z,28.2
2019-05-26T12:49:31.383Z,28.3
2019-05-26T12:50:31.427Z,27.9
2019-05-26T12:51:31.419Z,28.1
2019-05-26T12:52:51.448Z,28.2
2019-05-26T12:53:31.488Z,28.1
2019-05-26T12:54:21.481Z,27.8
2019-05-26T12:55:21.504Z,27.8
2019-05-26T12:56:21.525Z,28.0
2019-05-26T12:58:31.636Z,28.0
2019-05-26T12:59:31.594Z,27.9
2019-05-26T13:00:47.318Z,27.6
2019-05-26T13:01:31.616Z,27.4
2019-05-26T13:02:51.730Z,27.1
2019-05-26T13:03:31.757Z,27.1
2019-05-26T13:04:21.861Z,26.9
2019-05-26T13:05:21.853Z,26.9
2019-05-26T13:06:21.855Z,27.0
2019-05-26T13:08:31.951Z,26.9
2019-05-26T13:09:31.951Z,26.9
2019-05-26T13:10:32.029Z,26.6
2019-05-26T13:11:32.097Z,26.8
2019-05-26T13:12:52.235Z,26.9
2019-05-26T13:13:32.232Z,27.1
2019-05-26T13:14:22.258Z,27.2
2019-05-26T13:15:22.231Z,27.4
2019-05-26T13:16:22.239Z,27.6
2019-05-26T13:18:32.274Z,27.4
2019-05-26T13:19:32.286Z,27.4
2019-05-26T13:20:32.295Z,27.3
2019-05-26T13:21:32.308Z,27.5
2019-05-26T13:22:52.321Z,27.4
2019-05-26T13:23:32.351Z,27.3
2019-05-26T13:24:22.393Z,27.4
2019-05-26T13:25:22.385Z,27.2
2019-05-26T13:26:22.428Z,27.4
2019-05-26T13:28:32.488Z,26.9
2019-05-26T13:29:32.494Z,26.9
2019-05-26T13:30:32.508Z,27.0
2019-05-26T13:31:32.644Z,27.1
2019-05-26T13:32:52.623Z,27.1
2019-05-26T13:33:32.629Z,27.2
2019-05-26T13:34:22.678Z,27.1
2019-05-26T13:35:22.653Z,27.0
2019-05-26T13:36:22.666Z,26.9
2019-05-26T13:38:32.735Z,26.9
2019-05-26T13:39:32.812Z,26.9
2019-05-26T13:40:32.905Z,26.9
2019-05-26T13:41:32.918Z,27.0
2019-05-26T13:42:53.056Z,27.0
2019-05-26T13:43:33.020Z,26.9
2019-05-26T13:44:23.313Z,26.9
2019-05-26T13:45:23.523Z,26.9
2019-05-26T13:46:23.351Z,26.8
2019-05-26T13:48:33.468Z,27.2
2019-05-26T13:49:33.509Z,27.3
2019-05-26T13:50:33.501Z,27.5
2019-05-26T13:51:33.514Z,27.7
2019-05-26T13:52:53.536Z,27.6
2019-05-26T13:53:33.540Z,27.6
2019-05-26T13:54:24.718Z,27.6
2019-05-26T13:55:23.565Z,27.9
2019-05-26T13:56:23.597Z,27.9
2019-05-26T13:58:33.662Z,27.9
2019-05-26T13:59:33.674Z,27.8
2019-05-26T14:00:33.706Z,27.6
2019-05-26T14:01:33.728Z,27.7
2019-05-26T14:02:53.751Z,27.6
2019-05-26T14:03:33.762Z,27.6
2019-05-26T14:04:23.774Z,27.4
2019-05-26T14:05:24.963Z,27.3
2019-05-26T14:06:23.845Z,27.6
2019-05-26T14:08:33.945Z,27.8
2019-05-26T14:09:33.957Z,27.8
2019-05-26T14:10:34.015Z,27.8
2019-05-26T14:11:34.048Z,27.7
2019-05-26T14:12:54.056Z,27.3
2019-05-26T14:13:34.079Z,27.3
2019-05-26T14:14:24.070Z,27.3
2019-05-26T14:15:36.682Z,27.1
2019-05-26T14:16:25.014Z,27.2
2019-05-26T14:18:34.249Z,27.3
2019-05-26T14:19:34.183Z,27.5
2019-05-26T14:20:34.196Z,27.6
2019-05-26T14:21:34.236Z,27.6
2019-05-26T14:22:54.274Z,27.8
2019-05-26T14:23:34.303Z,27.8
2019-05-26T14:24:24.311Z,27.8
2019-05-26T14:25:24.347Z,27.7
2019-05-26T14:26:24.400Z,27.8
2019-05-26T14:28:34.435Z,27.6
2019-05-26T14:29:34.447Z,27.6
2019-05-26T14:30:34.489Z,27.7
2019-05-26T14:31:34.530Z,27.8
2019-05-26T14:32:54.542Z,28.0
2019-05-26T14:33:34.566Z,27.9
2019-05-26T14:34:24.570Z,27.9
2019-05-26T14:35:24.606Z,27.7
2019-05-26T14:36:24.606Z,27.6
2019-05-26T14:38:43.023Z,27.5
2019-05-26T14:39:35.129Z,27.4
2019-05-26T14:40:34.720Z,27.5
2019-05-26T14:41:34.748Z,27.5
2019-05-26T14:42:54.850Z,27.2
2019-05-26T14:43:34.842Z,27.2
2019-05-26T14:44:24.853Z,27.2
2019-05-26T14:45:24.894Z,27.3
2019-05-26T14:46:24.957Z,27.3
2019-05-26T14:48:35.005Z,27.4
2019-05-26T14:49:35.009Z,27.3
2019-05-26T14:50:35.066Z,27.2
2019-05-26T14:51:35.122Z,27.3
2019-05-26T14:52:55.174Z,27.4
2019-05-26T14:53:35.156Z,27.2
2019-05-26T14:54:25.162Z,27.1
2019-05-26T14:55:25.224Z,27.2
2019-05-26T14:56:25.206Z,27.2
2019-05-26T14:58:35.265Z,27.4
2019-05-26T14:59:35.273Z,27.3
2019-05-26T15:00:35.317Z,27.2
2019-05-26T15:01:35.320Z,26.9
2019-05-26T15:02:56.342Z,26.7
2019-05-26T15:03:35.331Z,26.9
2019-05-26T15:04:25.346Z,27.0
2019-05-26T15:05:25.387Z,26.8
2019-05-26T15:06:25.464Z,26.8
2019-05-26T15:08:35.506Z,26.7
2019-05-26T15:09:35.575Z,26.5
2019-05-26T15:10:35.645Z,26.5
2019-05-26T15:11:55.624Z,26.4
2019-05-26T15:12:55.667Z,26.4
2019-05-26T15:13:35.659Z,26.5
2019-05-26T15:14:25.674Z,26.3
2019-05-26T15:15:25.684Z,26.2
2019-05-26T15:16:25.719Z,26.1
2019-05-26T15:18:35.730Z,25.8
2019-05-26T15:19:35.740Z,25.6
2019-05-26T15:20:35.742Z,25.5
2019-05-26T15:21:55.772Z,25.2
2019-05-26T15:22:55.782Z,25.0
2019-05-26T15:23:35.785Z,25.0
2019-05-26T15:24:25.923Z,25.1
2019-05-26T15:25:25.821Z,25.1
2019-05-26T15:26:25.965Z,25.0
2019-05-26T15:28:35.945Z,25.0
2019-05-26T15:29:35.994Z,25.0
2019-05-26T15:30:36.018Z,24.9
2019-05-26T15:31:56.059Z,24.8
2019-05-26T15:32:56.030Z,24.8
2019-05-26T15:33:36.045Z,24.9
2019-05-26T15:34:36.073Z,24.9
2019-05-26T15:35:36.200Z,24.8
2019-05-26T15:36:56.092Z,24.8
2019-05-26T15:37:56.103Z,24.8
2019-05-26T15:42:08.278Z,24.9
2019-05-26T15:43:06.189Z,25.1
2019-05-26T15:47:07.485Z,25.3
2019-05-26T15:47:56.262Z,25.5
2019-05-26T15:52:06.367Z,25.5
2019-05-26T15:53:06.386Z,25.5
2019-05-26T15:57:06.458Z,24.8
2019-05-26T15:57:57.548Z,24.9
2019-05-26T16:00:36.532Z,24.5
2019-05-26T16:01:56.566Z,24.4
2019-05-26T16:02:56.590Z,24.1
2019-05-26T16:03:36.673Z,24.1
2019-05-26T16:04:36.609Z,24.0
2019-05-26T16:05:36.679Z,23.8
2019-05-26T16:06:56.734Z,23.5
2019-05-26T16:07:56.857Z,23.4
2019-05-26T16:08:37.876Z,23.4
2019-05-26T16:09:36.837Z,23.4
2019-05-26T16:10:36.842Z,23.4
2019-05-26T16:11:56.904Z,23.3
2019-05-26T16:12:56.943Z,23.3
2019-05-26T16:13:36.935Z,23.4
2019-05-26T16:14:26.932Z,23.4
2019-05-26T16:15:26.942Z,23.5
2019-05-26T16:16:39.999Z,23.4
2019-05-26T16:18:26.991Z,23.5
2019-05-26T16:19:28.055Z,23.7
2019-05-26T16:20:27.135Z,23.7
2019-05-26T16:21:28.211Z,23.8
2019-05-26T16:23:27.116Z,23.7
2019-05-26T16:24:27.136Z,23.6
2019-05-26T16:25:27.121Z,23.5
2019-05-26T16:28:27.322Z,23.5
2019-05-26T16:29:27.384Z,23.4
2019-05-26T16:30:27.389Z,23.3
2019-05-26T16:33:27.438Z,23.1
2019-05-26T16:34:27.499Z,23.0
2019-05-26T16:35:27.482Z,22.9
2019-05-26T16:38:27.523Z,22.8
2019-05-26T16:39:36.349Z,22.8
2019-05-26T16:40:27.716Z,22.7
2019-05-26T16:43:27.768Z,22.7
2019-05-26T16:44:27.750Z,22.6
2019-05-26T16:45:27.770Z,22.6
2019-05-26T16:47:27.885Z,22.5
2019-05-26T16:51:39.071Z,22.2
2019-05-26T16:52:28.002Z,22.2
2019-05-26T16:53:28.037Z,22.3
2019-05-26T16:54:28.044Z,22.4
2019-05-26T16:55:28.177Z,22.4
2019-05-26T16:57:28.079Z,22.3
2019-05-26T17:01:38.198Z,22.5
2019-05-26T17:02:29.351Z,22.4
2019-05-26T17:03:28.280Z,22.3
2019-05-26T17:04:28.333Z,22.3
2019-05-26T17:05:28.326Z,22.4
2019-05-26T17:07:28.410Z,22.4
2019-05-26T17:08:28.441Z,22.3
2019-05-26T17:09:28.492Z,22.4
2019-05-26T17:10:28.477Z,22.2
2019-05-26T17:12:28.524Z,22.3
2019-05-26T17:16:38.957Z,22.1
2019-05-26T17:17:28.626Z,22.0
2019-05-26T17:18:28.641Z,22.0
2019-05-26T17:19:28.667Z,21.9
2019-05-26T17:20:28.679Z,21.9
2019-05-26T17:22:28.759Z,21.7
2019-05-26T17:26:38.842Z,21.8
2019-05-26T17:27:28.855Z,21.7
2019-05-26T17:28:28.891Z,21.7
2019-05-26T17:29:28.911Z,21.7
2019-05-26T17:30:28.933Z,21.7
2019-05-26T17:32:28.961Z,21.6
2019-05-26T17:33:28.976Z,21.7
2019-05-26T17:34:28.993Z,21.7
2019-05-26T17:35:28.997Z,21.7
2019-05-26T17:37:29.084Z,21.5
2019-05-26T17:41:29.217Z,21.5
2019-05-26T17:42:29.236Z,21.5
2019-05-26T17:43:29.259Z,21.4
2019-05-26T17:44:29.296Z,21.3
2019-05-26T17:45:29.291Z,21.4
2019-05-26T17:46:39.445Z,21.2
2019-05-26T17:47:30.522Z,21.2
2019-05-26T17:48:29.372Z,21.2
2019-05-26T17:49:29.403Z,21.1
2019-05-26T17:50:29.462Z,21.1
2019-05-26T17:51:39.426Z,21.0
2019-05-26T17:52:29.444Z,20.9
2019-05-26T17:53:29.471Z,20.8
2019-05-26T17:54:29.491Z,20.6
2019-05-26T17:55:29.507Z,20.6
2019-05-26T17:56:39.491Z,20.5
2019-05-26T17:57:29.637Z,20.4
2019-05-26T17:58:30.656Z,20.4
2019-05-26T17:59:29.540Z,20.3
2019-05-26T18:00:29.581Z,20.3
2019-05-26T18:01:39.616Z,20.2
2019-05-26T18:02:29.624Z,20.1
2019-05-26T18:03:29.637Z,20.1
2019-05-26T18:04:29.646Z,20.1
2019-05-26T18:05:29.715Z,20.0
2019-05-26T18:06:39.735Z,20.0
2019-05-26T18:07:29.746Z,19.9
2019-05-26T18:08:29.753Z,20.0
2019-05-26T18:09:43.207Z,19.9
2019-05-26T18:10:29.784Z,19.9
2019-05-26T18:11:39.832Z,19.9
2019-05-26T18:12:29.844Z,19.7
2019-05-26T18:13:29.856Z,19.6
2019-05-26T18:14:29.867Z,19.6
2019-05-26T18:15:29.906Z,19.4
2019-05-26T18:16:39.940Z,19.4
2019-05-26T18:17:44.093Z,19.3
2019-05-26T18:18:29.988Z,19.3
2019-05-26T18:19:30.130Z,19.1
2019-05-26T18:20:30.114Z,19.1
2019-05-26T18:21:40.003Z,19.0
2019-05-26T18:22:30.029Z,19.0
2019-05-26T18:23:30.039Z,18.9
2019-05-26T18:24:30.076Z,18.9
2019-05-26T18:25:30.051Z,18.8
2019-05-26T18:26:40.076Z,18.7
2019-05-26T18:27:30.091Z,18.6
2019-05-26T18:28:30.114Z,18.8
2019-05-26T18:29:30.115Z,18.6
2019-05-26T18:30:30.152Z,18.7
2019-05-26T18:31:40.197Z,18.5
2019-05-26T18:33:30.200Z,18.5
2019-05-26T18:34:30.219Z,18.4
2019-05-26T18:35:30.239Z,18.5
2019-05-26T18:37:30.281Z,18.5
2019-05-26T18:41:40.338Z,18.4
2019-05-26T18:42:30.327Z,18.2
2019-05-26T18:43:30.503Z,18.2
2019-05-26T18:44:30.373Z,18.3
2019-05-26T18:45:30.398Z,18.1
2019-05-26T18:47:30.421Z,18.1
2019-05-26T18:51:40.510Z,18.1
2019-05-26T18:52:30.527Z,18.1
2019-05-26T18:53:30.590Z,18.1
2019-05-26T18:54:31.771Z,18.0
2019-05-26T18:55:30.615Z,18.1
2019-05-26T18:57:30.787Z,17.9
2019-05-26T19:01:40.855Z,17.8
2019-05-26T19:02:30.880Z,17.8
2019-05-26T19:03:30.924Z,17.8
2019-05-26T19:04:30.891Z,17.7
2019-05-26T19:07:30.997Z,17.6
2019-05-26T19:11:40.994Z,17.6
2019-05-26T19:12:31.026Z,17.6
2019-05-26T19:13:31.116Z,17.5
2019-05-26T19:14:31.157Z,17.5
2019-05-26T19:15:31.163Z,17.5
2019-05-26T19:17:31.201Z,17.5
2019-05-26T19:19:31.339Z,17.4
2019-05-26T19:20:31.371Z,17.5
2019-05-26T19:21:41.446Z,17.5
2019-05-26T19:22:31.441Z,17.5
2019-05-26T19:23:31.450Z,17.5
2019-05-26T19:24:31.458Z,17.4
2019-05-26T19:25:31.467Z,17.4
2019-05-26T19:26:41.493Z,17.3
2019-05-26T19:27:33.474Z,17.3
2019-05-26T19:28:31.519Z,17.4
2019-05-26T19:29:31.558Z,17.4
2019-05-26T19:30:31.573Z,17.3
2019-05-26T19:31:41.586Z,17.3
2019-05-26T19:32:31.604Z,17.5
2019-05-26T19:33:31.685Z,17.3
2019-05-26T19:34:31.679Z,17.3
2019-05-26T19:35:31.690Z,17.4
2019-05-26T19:36:41.785Z,17.3
2019-05-26T19:37:31.763Z,17.3
2019-05-26T19:38:32.899Z,17.3
2019-05-26T19:39:31.798Z,17.3
2019-05-26T19:40:31.824Z,17.3
2019-05-26T19:41:41.853Z,17.3
2019-05-26T19:42:31.863Z,17.3
2019-05-26T19:43:31.890Z,17.3
2019-05-26T19:44:31.892Z,17.3